Time;durP1;ratioP1;P1;durP2;ratioP2;P2;SDS_P1;SDS_P2;PMS_P1;PMS_P2;Temp;Humidity;BMP_temperature;BMP_pressure;BME280_temperature;BME280_humidity;BME280_pressure;Samples;Min_cycle;Max_cycle;Signal;HPM_P1;HPM_P2
2023/01/10 00:00:20;;;;;;;2.47;0.80;;;;;;;4.19;100.00;98684.63;5089828;28;20083;-80
2023/01/10 00:02:47;;;;;;;3.58;0.93;;;;;;;4.21;100.00;98696.09;5080606;28;20062;-79
2023/01/10 00:05:14;;;;;;;4.38;1.27;;;;;;;4.06;100.00;98677.00;5090984;28;20044;-79
2023/01/10 00:07:41;;;;;;;3.67;0.98;;;;;;;4.18;100.00;98704.47;5089709;28;20055;-79
2023/01/10 00:10:09;;;;;;;0.88;0.80;;;;;;;3.94;100.00;98683.59;5084493;28;20048;-80
2023/01/10 00:15:21;;;;;;;1.13;1.00;;;;;;;4.11;100.00;98721.38;5086454;28;20518;-79
2023/01/10 00:17:48;;;;;;;3.00;1.10;;;;;;;4.19;100.00;98718.78;5088855;28;20150;-79
2023/01/10 00:20:15;;;;;;;4.00;1.05;;;;;;;3.98;100.00;98700.28;5087116;28;20047;-79
2023/01/10 00:22:42;;;;;;;1.65;1.10;;;;;;;4.11;100.00;98726.78;5084038;28;20048;-79
2023/01/10 00:25:08;;;;;;;2.15;1.02;;;;;;;3.97;100.00;98712.84;5084609;28;20476;-79
2023/01/10 00:27:36;;;;;;;0.88;0.80;;;;;;;4.14;100.00;98731.84;5086479;28;20040;-79
2023/01/10 00:30:12;;;;;;;1.58;1.00;;;;;;;4.13;100.00;98744.44;5085477;28;20492;-79
2023/01/10 00:32:39;;;;;;;1.15;0.95;;;;;;;4.05;100.00;98738.97;5083900;28;20084;-79
2023/01/10 00:35:07;;;;;;;2.13;1.27;;;;;;;4.11;100.00;98753.66;5084292;28;20052;-79
2023/01/10 00:37:34;;;;;;;1.55;0.98;;;;;;;4.10;100.00;98755.53;5085121;28;20327;-79
2023/01/10 00:40:00;;;;;;;3.75;1.40;;;;;;;3.98;100.00;98736.06;5087408;28;20056;-79
2023/01/10 00:45:12;;;;;;;1.92;1.13;;;;;;;3.96;100.00;98748.84;5089651;28;20812;-79
2023/01/10 00:47:39;;;;;;;4.32;1.10;;;;;;;4.08;100.00;98771.00;5088442;28;20056;-79
2023/01/10 00:50:07;;;;;;;2.20;1.20;;;;;;;3.98;100.00;98762.13;5089976;28;20040;-80
2023/01/10 00:52:33;;;;;;;2.67;1.05;;;;;;;3.94;100.00;98769.66;5078273;28;20054;-79
2023/01/10 00:55:00;;;;;;;3.85;1.33;;;;;;;4.14;100.00;98789.19;5087297;28;20051;-79
2023/01/10 00:57:26;;;;;;;4.97;1.55;;;;;;;3.87;100.00;98758.66;5088066;28;20503;-79
2023/01/10 00:59:53;;;;;;;1.58;1.48;;;;;;;4.05;100.00;98790.09;5090578;28;20048;-79
2023/01/10 01:02:21;;;;;;;2.20;1.50;;;;;;;4.10;100.00;98782.44;5081267;28;20040;-79
2023/01/10 01:04:47;;;;;;;1.60;1.50;;;;;;;4.02;100.00;98783.19;5083434;28;20487;-79
2023/01/10 01:07:14;;;;;;;2.13;1.45;;;;;;;3.95;100.00;98779.41;5090404;28;20044;-79
2023/01/10 01:12:21;;;;;;;1.88;1.48;;;;;;;3.95;100.00;98790.16;5077495;28;20048;-79
2023/01/10 01:14:47;;;;;;;2.30;1.33;;;;;;;3.97;100.00;98808.84;5078811;28;20053;-79
2023/01/10 01:17:14;;;;;;;2.50;1.45;;;;;;;4.05;100.00;98817.00;5084001;28;20051;-80
2023/01/10 01:19:42;;;;;;;1.42;1.23;;;;;;;4.11;100.00;98829.88;5089879;28;20062;-79
2023/01/10 01:22:08;;;;;;;3.20;1.55;;;;;;;3.99;100.00;98826.53;5087130;28;20496;-79
2023/01/10 01:24:35;;;;;;;3.03;1.60;;;;;;;4.00;100.00;98828.22;5083670;28;20047;-79
2023/01/10 01:27:01;;;;;;;2.67;1.50;;;;;;;4.08;100.00;98855.22;5084060;28;20048;-80
2023/01/10 01:29:28;;;;;;;3.70;1.90;;;;;;;4.10;100.00;98865.00;5089302;28;20044;-79
2023/01/10 01:31:56;;;;;;;1.90;1.30;;;;;;;4.04;100.00;98855.66;5082362;28;20416;-79
2023/01/10 01:34:22;;;;;;;3.60;2.25;;;;;;;3.91;100.00;98839.88;5085345;28;20375;-79
2023/01/10 01:36:50;;;;;;;2.92;1.60;;;;;;;4.03;100.00;98864.72;5086266;28;20481;-79
2023/01/10 01:39:17;;;;;;;1.98;1.30;;;;;;;3.99;100.00;98866.00;5090369;28;20077;-79
2023/01/10 01:41:59;;;;;;;2.70;1.83;;;;;;;3.88;100.00;98859.88;5083885;28;20416;-80
2023/01/10 01:44:30;;;;;;;2.40;1.50;;;;;;;3.98;100.00;98881.31;5078674;28;20083;-79
2023/01/10 01:47:02;;;;;;;2.33;1.55;;;;;;;3.98;100.00;98877.78;5080719;28;20049;-79
2023/01/10 01:49:30;;;;;;;2.40;1.42;;;;;;;3.91;100.00;98877.53;5070162;28;20049;-79
2023/01/10 01:52:03;;;;;;;5.25;1.70;;;;;;;3.98;100.00;98888.56;5073492;28;20057;-79
2023/01/10 01:54:32;;;;;;;4.45;1.58;;;;;;;4.05;100.00;98906.63;5085362;28;20070;-79
2023/01/10 01:57:03;;;;;;;2.13;1.33;;;;;;;4.08;100.00;98927.84;5092798;28;20048;-79
2023/01/10 01:59:33;;;;;;;2.17;1.52;;;;;;;4.07;100.00;98928.00;5083300;28;20047;-79
2023/01/10 02:02:05;;;;;;;5.13;1.63;;;;;;;3.99;100.00;98917.13;5084125;28;20054;-79
2023/01/10 02:04:39;;;;;;;1.48;1.15;;;;;;;3.90;100.00;98902.75;5085136;28;20048;-80
2023/01/10 02:07:07;;;;;;;1.70;1.23;;;;;;;3.94;100.00;98919.44;5082459;28;20139;-79
2023/01/10 02:09:40;;;;;;;2.33;1.25;;;;;;;4.06;100.00;98929.84;5087621;28;20054;-79
2023/01/10 02:12:07;;;;;;;2.90;1.27;;;;;;;4.13;100.00;98957.00;5085410;28;20046;-79
2023/01/10 02:14:36;;;;;;;1.55;0.98;;;;;;;4.08;100.00;98952.06;5089244;28;20400;-79
2023/01/10 02:17:02;;;;;;;3.65;1.00;;;;;;;3.94;100.00;98939.09;5082615;28;20379;-79
2023/01/10 02:19:43;;;;;;;4.57;1.42;;;;;;;3.97;100.00;98954.94;5092850;28;20066;-80
2023/01/10 02:23:01;;;;;;;3.22;0.85;;;;;;;4.02;100.00;98958.03;5082085;28;20093;-79
2023/01/10 02:25:54;;;;;;;0.70;0.70;;;;;;;3.85;100.00;98942.66;5086022;28;20051;-80
2023/01/10 02:29:03;;;;;;;1.65;0.90;;;;;;;3.88;100.00;98951.31;5092875;28;20048;-80
2023/01/10 02:32:03;;;;;;;2.08;0.95;;;;;;;4.05;100.00;98981.09;5090444;28;20055;-79
2023/01/10 02:34:40;;;;;;;1.65;0.98;;;;;;;4.07;100.00;98988.03;5088702;28;20058;-79
2023/01/10 02:37:15;;;;;;;1.48;1.08;;;;;;;3.89;100.00;98974.50;5092161;28;20495;-79
2023/01/10 02:39:50;;;;;;;2.97;1.15;;;;;;;4.01;100.00;98995.84;5083942;28;20048;-80
2023/01/10 02:42:25;;;;;;;1.60;1.02;;;;;;;3.88;100.00;98971.97;5079143;28;20048;-79
2023/01/10 02:44:58;;;;;;;1.45;0.90;;;;;;;3.98;100.00;98996.97;5090032;28;20047;-80
2023/01/10 02:47:24;;;;;;;1.38;0.95;;;;;;;3.87;100.00;98981.03;5093099;28;20062;-80
2023/01/10 02:49:52;;;;;;;3.38;0.85;;;;;;;3.91;100.00;98998.56;5077102;28;20048;-79
2023/01/10 02:52:23;;;;;;;3.38;1.23;;;;;;;4.12;100.00;99010.97;5079220;28;20048;-79
2023/01/10 02:54:57;;;;;;;2.50;1.10;;;;;;;3.97;100.00;99010.56;5092369;28;20082;-79
2023/01/10 02:57:45;;;;;;;1.65;1.15;;;;;;;3.86;100.00;98993.63;5076932;28;20048;-79
2023/01/10 03:00:33;;;;;;;2.20;1.00;;;;;;;3.85;100.00;98997.31;5091927;28;20048;-79
2023/01/10 03:03:13;;;;;;;2.78;1.15;;;;;;;4.02;100.00;99030.66;5086061;28;20052;-79
2023/01/10 03:05:52;;;;;;;1.15;1.05;;;;;;;3.97;100.00;99032.09;5090352;28;20052;-79
2023/01/10 03:08:29;;;;;;;2.42;1.15;;;;;;;3.94;100.00;99022.47;5090444;28;20416;-79
2023/01/10 03:10:58;;;;;;;3.50;1.30;;;;;;;4.00;100.00;99037.19;5092387;28;20136;-79
2023/01/10 03:13:31;;;;;;;1.52;1.10;;;;;;;4.01;100.00;99038.88;5085228;28;20044;-79
2023/01/10 03:15:59;;;;;;;3.80;1.52;;;;;;;3.85;100.00;99039.47;5092312;28;20052;-79
2023/01/10 03:18:32;;;;;;;2.28;1.15;;;;;;;3.86;100.00;99031.28;5092404;28;20051;-79
2023/01/10 03:21:03;;;;;;;1.98;1.15;;;;;;;3.89;100.00;99046.28;5092102;28;20048;-79
2023/01/10 03:23:33;;;;;;;2.72;1.10;;;;;;;3.80;100.00;99061.44;5078223;28;20047;-79
2023/01/10 03:26:00;;;;;;;;;;;;;;;3.95;100.00;99077.13;5092114;28;20048;-79
2023/01/10 03:28:32;;;;;;;3.58;1.38;;;;;;;3.86;100.00;99078.84;5091164;28;20283;-79
2023/01/10 03:31:02;;;;;;;7.97;1.30;;;;;;;3.86;100.00;99085.06;5087498;28;20046;-79
2023/01/10 03:33:30;;;;;;;;;;;;;;;3.89;100.00;99100.06;5087248;28;20047;-79
2023/01/10 03:36:13;;;;;;;4.05;1.30;;;;;;;3.84;100.00;99097.81;5088486;28;19919;-79
2023/01/10 03:38:47;;;;;;;2.13;0.80;;;;;;;3.88;100.00;99107.31;5087234;28;20048;-79
2023/01/10 03:41:17;;;;;;;2.28;1.17;;;;;;;3.69;100.00;99102.78;5089870;28;20131;-79
2023/01/10 03:46:39;;;;;;;1.75;1.00;;;;;;;3.79;100.00;99126.13;5091607;28;20082;-79
2023/01/10 03:49:08;;;;;;;7.97;1.42;;;;;;;3.75;100.00;99116.63;5092204;28;20044;-79
2023/01/10 03:51:37;;;;;;;2.15;0.98;;;;;;;3.79;100.00;99126.13;5084980;28;20062;-80
2023/01/10 03:54:05;;;;;;;4.53;1.38;;;;;;;3.80;100.00;99125.97;5082344;28;20546;-80
2023/01/10 03:56:31;;;;;;;2.75;1.00;;;;;;;3.83;100.00;99149.88;5089185;28;20412;-80
2023/01/10 03:58:58;;;;;;;6.10;1.50;;;;;;;3.67;100.00;99126.28;5090873;28;20044;-80
2023/01/10 04:01:26;;;;;;;5.05;1.10;;;;;;;3.72;100.00;99140.13;5091788;28;20358;-80
2023/01/10 04:03:52;;;;;;;4.53;1.38;;;;;;;3.78;100.00;99154.00;5088656;28;20051;-79
2023/01/10 04:06:19;;;;;;;3.65;1.42;;;;;;;3.75;100.00;99151.59;5090924;28;20407;-80
2023/01/10 04:08:46;;;;;;;1.73;1.10;;;;;;;3.71;100.00;99151.88;5090573;28;20040;-80
2023/01/10 04:11:13;;;;;;;2.92;1.50;;;;;;;3.59;100.00;99130.66;5089369;28;20047;-80
2023/01/10 04:13:41;;;;;;;8.57;2.42;;;;;;;3.66;100.00;99156.00;5082346;28;20051;-79
2023/01/10 04:16:08;;;;;;;6.88;1.77;;;;;;;3.75;100.00;99159.66;5094648;28;20159;-79
2023/01/10 04:18:35;;;;;;;5.90;1.45;;;;;;;3.57;100.00;99149.63;5088963;28;20485;-79
2023/01/10 04:21:01;;;;;;;2.58;1.35;;;;;;;3.70;100.00;99163.63;5079487;28;20408;-80
2023/01/10 04:23:28;;;;;;;5.28;2.13;;;;;;;3.62;100.00;99173.38;5087480;28;20040;-80
2023/01/10 04:25:56;;;;;;;3.13;1.45;;;;;;;3.56;100.00;99182.84;5089991;28;20051;-80
2023/01/10 04:28:22;;;;;;;3.83;1.60;;;;;;;3.43;100.00;99185.78;5091062;28;20040;-80
2023/01/10 04:30:49;;;;;;;2.50;1.63;;;;;;;3.35;100.00;99182.97;5081918;28;20164;-80
2023/01/10 04:33:16;;;;;;;6.20;1.75;;;;;;;3.46;100.00;99219.63;5084740;28;20430;-80
2023/01/10 04:35:47;;;;;;;3.88;1.67;;;;;;;3.32;100.00;99202.88;5083440;28;20048;-80
2023/01/10 04:38:14;;;;;;;3.97;1.88;;;;;;;3.29;100.00;99200.47;5089701;28;20051;-80
2023/01/10 04:40:41;;;;;;;3.78;1.58;;;;;;;3.23;100.00;99202.88;5090626;28;20411;-79
2023/01/10 04:43:09;;;;;;;4.70;1.90;;;;;;;3.32;100.00;99229.75;5087433;28;20048;-79
2023/01/10 04:45:35;;;;;;;5.22;2.08;;;;;;;3.24;100.00;99218.00;5090111;28;20044;-80
2023/01/10 04:48:02;;;;;;;5.38;2.03;;;;;;;3.14;100.00;99223.34;5085297;28;20070;-79
2023/01/10 04:50:28;;;;;;;6.43;1.88;;;;;;;3.23;100.00;99240.50;5090179;28;20047;-79
2023/01/10 04:52:55;;;;;;;6.50;2.03;;;;;;;3.23;100.00;99246.72;5087259;28;20062;-79
2023/01/10 04:55:22;;;;;;;3.72;2.15;;;;;;;3.18;100.00;99244.44;5083150;28;20048;-79
2023/01/10 04:57:48;;;;;;;4.07;1.63;;;;;;;3.38;100.00;99281.28;5090683;28;20052;-79
2023/01/10 05:00:17;;;;;;;3.92;1.80;;;;;;;3.34;100.00;99267.25;5079596;28;20060;-79
2023/01/10 05:02:43;;;;;;;2.67;1.60;;;;;;;3.39;100.00;99282.97;5079520;28;20089;-79
2023/01/10 05:05:11;;;;;;;3.15;1.42;;;;;;;3.30;100.00;99266.69;5077214;28;20499;-79
2023/01/10 05:07:37;;;;;;;3.72;1.60;;;;;;;3.45;100.00;99294.03;5089696;28;20054;-79
2023/01/10 05:10:05;;;;;;;3.13;1.83;;;;;;;3.38;100.00;99294.72;5086061;28;20132;-79
2023/01/10 05:12:31;;;;;;;7.15;1.60;;;;;;;3.41;100.00;99303.34;5088204;28;20040;-80
2023/01/10 05:14:58;;;;;;;5.32;2.20;;;;;;;3.29;100.00;99286.47;5084860;28;20079;-80
2023/01/10 05:17:27;;;;;;;6.80;2.17;;;;;;;3.22;100.00;99273.72;5095808;28;20046;-79
2023/01/10 05:19:53;;;;;;;2.58;1.65;;;;;;;3.38;100.00;99317.06;5082245;28;20048;-79
2023/01/10 05:22:20;;;;;;;4.20;2.25;;;;;;;3.36;100.00;99301.06;5080046;28;20380;-79
2023/01/10 05:24:46;;;;;;;8.23;2.90;;;;;;;3.30;100.00;99304.31;5088766;28;20506;-80
2023/01/10 05:27:13;;;;;;;5.80;2.30;;;;;;;3.45;100.00;99322.75;5087448;28;20124;-79
2023/01/10 05:29:39;;;;;;;8.32;1.80;;;;;;;3.33;100.00;99313.94;5084336;28;20052;-79
2023/01/10 05:32:06;;;;;;;8.98;2.03;;;;;;;3.41;100.00;99321.31;5085619;28;20458;-83
2023/01/10 05:34:34;;;;;;;11.55;2.55;;;;;;;3.32;100.00;99309.53;5081754;28;20040;-84
2023/01/10 05:37:01;;;;;;;6.80;1.70;;;;;;;3.42;100.00;99331.06;5094784;28;20060;-83
2023/01/10 05:39:27;;;;;;;13.75;1.77;;;;;;;3.48;100.00;99341.31;5089293;28;20051;-84
2023/01/10 05:41:54;;;;;;;10.38;2.22;;;;;;;3.44;100.00;99342.53;5091516;28;20048;-84
2023/01/10 05:44:20;;;;;;;10.95;2.33;;;;;;;3.45;100.00;99349.63;5091213;28;20059;-84
2023/01/10 05:46:47;;;;;;;9.95;2.35;;;;;;;3.44;100.00;99354.13;5089971;28;20118;-84
2023/01/10 05:49:14;;;;;;;5.30;1.42;;;;;;;3.49;100.00;99365.34;5083736;28;20048;-83
2023/01/10 05:51:42;;;;;;;16.60;2.53;;;;;;;3.30;100.00;99331.16;5093907;28;20044;-84
2023/01/10 05:54:09;;;;;;;8.13;1.92;;;;;;;3.28;100.00;99330.47;5092854;28;20052;-84
2023/01/10 05:56:37;;;;;;;8.82;1.80;;;;;;;3.33;100.00;99351.56;5085584;28;20063;-84
2023/01/10 05:59:04;;;;;;;6.38;2.22;;;;;;;3.49;100.00;99364.50;5085410;28;20289;-83
2023/01/10 06:01:30;;;;;;;28.50;2.58;;;;;;;3.35;100.00;99354.94;5094397;28;20459;-84
2023/01/10 06:03:57;;;;;;;8.45;2.20;;;;;;;3.45;100.00;99366.59;5096201;28;20057;-84
2023/01/10 06:06:23;;;;;;;11.30;3.17;;;;;;;3.33;100.00;99349.72;5084442;28;20423;-84
2023/01/10 06:08:54;;;;;;;14.95;2.35;;;;;;;3.45;100.00;99366.59;5082195;28;20605;-84
2023/01/10 06:11:22;;;;;;;15.23;2.92;;;;;;;3.51;100.00;99384.88;5087188;28;20102;-84
2023/01/10 06:13:52;;;;;;;12.13;2.33;;;;;;;3.51;100.00;99368.75;5078673;28;20087;-84
2023/01/10 06:16:19;;;;;;;10.13;1.90;;;;;;;3.35;100.00;99361.16;5085463;28;20044;-84
2023/01/10 06:18:45;;;;;;;12.93;3.00;;;;;;;3.49;100.00;99386.88;5089034;28;20058;-84
2023/01/10 06:21:12;;;;;;;11.73;2.35;;;;;;;3.50;100.00;99393.06;5088902;28;20040;-84
2023/01/10 06:23:39;;;;;;;10.50;2.33;;;;;;;3.34;100.00;99364.84;5074804;28;20054;-84
2023/01/10 06:26:07;;;;;;;7.97;1.80;;;;;;;3.35;100.00;99360.31;5093547;28;20062;-82
2023/01/10 06:28:34;;;;;;;8.77;2.20;;;;;;;3.46;100.00;99383.56;5087501;28;20064;-84
2023/01/10 06:31:00;;;;;;;11.10;2.50;;;;;;;3.46;100.00;99395.19;5092858;28;20048;-84
2023/01/10 06:33:27;;;;;;;13.77;3.90;;;;;;;3.46;100.00;99392.50;5092197;28;20051;-84
2023/01/10 06:35:53;;;;;;;12.10;2.65;;;;;;;3.42;100.00;99411.69;5088148;28;20497;-83
2023/01/10 06:38:20;;;;;;;6.88;1.92;;;;;;;3.41;100.00;99412.69;5092743;28;20130;-84
2023/01/10 06:40:47;;;;;;;11.43;1.92;;;;;;;3.44;100.00;99431.25;5093515;28;20050;-84
2023/01/10 06:43:15;;;;;;;11.93;1.88;;;;;;;3.41;100.00;99435.03;5081149;28;20052;-84
2023/01/10 06:45:41;;;;;;;4.78;1.30;;;;;;;3.38;100.00;99432.63;5088365;28;20073;-84
2023/01/10 06:48:08;;;;;;;13.90;2.67;;;;;;;3.43;100.00;99432.22;5084083;28;20048;-85
2023/01/10 06:50:35;;;;;;;9.13;2.38;;;;;;;3.38;100.00;99438.00;5093113;28;20468;-84
2023/01/10 06:53:04;;;;;;;9.10;2.03;;;;;;;3.45;100.00;99441.03;5088997;28;20047;-84
2023/01/10 06:55:31;;;;;;;8.35;1.63;;;;;;;3.28;100.00;99419.13;5091404;28;20407;-83
2023/01/10 06:58:04;;;;;;;18.40;2.90;;;;;;;3.36;100.00;99448.03;5086961;28;20076;-83
2023/01/10 07:00:32;;;;;;;8.68;2.03;;;;;;;3.33;100.00;99451.00;5095425;28;20143;-83
2023/01/10 07:03:00;;;;;;;10.45;2.38;;;;;;;3.16;100.00;99430.91;5090791;28;20452;-83
2023/01/10 07:05:28;;;;;;;8.05;1.35;;;;;;;3.29;100.00;99458.44;5086043;28;20044;-84
2023/01/10 07:07:55;;;;;;;7.70;1.50;;;;;;;3.24;100.00;99451.75;5092072;28;20064;-84
2023/01/10 07:10:25;;;;;;;10.10;3.00;;;;;;;3.16;100.00;99442.53;5093190;28;20407;-85
2023/01/10 07:12:54;;;;;;;11.65;1.98;;;;;;;3.25;100.00;99459.72;5092333;28;20102;-84
2023/01/10 07:15:20;;;;;;;13.13;2.63;;;;;;;3.20;100.00;99464.59;5088251;28;20406;-84
2023/01/10 07:17:48;;;;;;;14.40;2.38;;;;;;;3.07;100.00;99454.06;5092715;28;20076;-85
2023/01/10 07:20:15;;;;;;;16.55;2.65;;;;;;;3.13;100.00;99469.66;5092472;28;20130;-85
2023/01/10 07:22:42;;;;;;;13.65;2.50;;;;;;;3.24;100.00;99492.06;5092272;28;20068;-84
2023/01/10 07:25:09;;;;;;;10.95;2.38;;;;;;;3.19;100.00;99487.94;5089942;28;20538;-84
2023/01/10 07:27:35;;;;;;;16.98;3.05;;;;;;;3.24;100.00;99494.75;5092267;28;20540;-85
2023/01/10 07:30:02;;;;;;;6.13;1.55;;;;;;;3.31;100.00;99495.94;5092864;28;20052;-84
2023/01/10 07:32:29;;;;;;;13.02;2.70;;;;;;;3.41;100.00;99510.28;5089470;28;20040;-84
2023/01/10 07:34:57;;;;;;;7.68;2.17;;;;;;;3.32;100.00;99486.91;5090311;28;20055;-85
2023/01/10 07:37:23;;;;;;;15.63;2.30;;;;;;;3.38;100.00;99498.97;5092520;28;20135;-84
2023/01/10 07:39:50;;;;;;;29.45;2.92;;;;;;;3.41;100.00;99499.53;5092745;28;20055;-84
2023/01/10 07:42:16;;;;;;;9.93;1.60;;;;;;;3.46;100.00;99504.53;5091168;28;20048;-84
2023/01/10 07:44:43;;;;;;;6.78;2.05;;;;;;;3.50;100.00;99505.97;5090406;28;20048;-84
2023/01/10 07:47:09;;;;;;;8.45;2.50;;;;;;;3.45;100.00;99502.84;5092068;28;20051;-84
2023/01/10 07:49:36;;;;;;;7.70;1.98;;;;;;;3.46;100.00;99515.28;5090261;28;20051;-84
2023/01/10 07:52:07;;;;;;;13.73;1.98;;;;;;;3.46;100.00;99534.97;5091767;28;20139;-84
2023/01/10 07:54:34;;;;;;;12.07;1.88;;;;;;;3.55;100.00;99557.50;5090803;28;20051;-84
2023/01/10 07:57:01;;;;;;;11.98;2.65;;;;;;;3.48;100.00;99554.50;5091999;28;20056;-84
2023/01/10 07:59:27;;;;;;;8.35;2.40;;;;;;;3.57;100.00;99570.81;5091922;28;20052;-84
2023/01/10 08:01:54;;;;;;;16.98;2.92;;;;;;;3.57;100.00;99576.19;5081963;28;20063;-84
2023/01/10 08:04:21;;;;;;;10.15;2.58;;;;;;;3.59;100.00;99574.25;5091058;28;20047;-84
2023/01/10 08:06:47;;;;;;;12.05;2.97;;;;;;;3.58;100.00;99581.44;5091766;28;20428;-84
2023/01/10 08:09:15;;;;;;;16.20;2.55;;;;;;;3.62;100.00;99574.81;5090940;28;20062;-85
2023/01/10 08:11:42;;;;;;;9.30;1.67;;;;;;;3.64;100.00;99580.91;5090166;28;20498;-84
2023/01/10 08:14:09;;;;;;;12.15;2.53;;;;;;;3.59;100.00;99576.94;5091197;28;20054;-84
2023/01/10 08:16:35;;;;;;;15.48;3.83;;;;;;;3.59;100.00;99568.88;5086869;28;20064;-84
2023/01/10 08:19:02;;;;;;;9.63;2.17;;;;;;;3.63;100.00;99572.97;5091537;28;20054;-84
2023/01/10 08:21:28;;;;;;;6.95;1.73;;;;;;;3.64;100.00;99569.31;5089525;28;20134;-84
2023/01/10 08:23:55;;;;;;;10.27;2.38;;;;;;;3.68;100.00;99581.53;5090688;28;20044;-84
2023/01/10 08:26:23;;;;;;;8.25;1.77;;;;;;;3.64;100.00;99582.75;5091406;28;20052;-85
2023/01/10 08:28:49;;;;;;;12.20;1.98;;;;;;;3.66;100.00;99575.44;5091721;28;20139;-85
2023/01/10 08:31:16;;;;;;;8.38;1.70;;;;;;;3.75;100.00;99595.28;5089450;28;20051;-84
2023/01/10 08:33:43;;;;;;;13.50;2.13;;;;;;;3.64;100.00;99572.00;5086614;28;20106;-84
2023/01/10 08:36:16;;;;;;;6.63;2.20;;;;;;;3.69;100.00;99589.47;5090997;28;20040;-85
2023/01/10 08:38:42;;;;;;;13.60;2.47;;;;;;;3.80;100.00;99606.53;5091933;28;20403;-84
2023/01/10 08:41:09;;;;;;;6.10;1.75;;;;;;;3.71;100.00;99605.47;5089109;28;20054;-85
2023/01/10 08:43:37;;;;;;;11.55;2.55;;;;;;;3.77;100.00;99606.78;5090446;28;20055;-84
2023/01/10 08:46:04;;;;;;;17.65;2.38;;;;;;;3.85;100.00;99605.16;5091399;28;20044;-84
2023/01/10 08:48:30;;;;;;;5.70;2.65;;;;;;;3.94;100.00;99616.94;5091085;28;20048;-84
2023/01/10 08:50:57;;;;;;;11.52;2.50;;;;;;;3.93;100.00;99606.31;5081743;28;20448;-85
2023/01/10 08:53:29;;;;;;;10.32;2.25;;;;;;;3.98;100.00;99610.31;5089662;28;20480;-84
2023/01/10 08:55:56;;;;;;;13.80;2.85;;;;;;;3.92;100.00;99594.72;5091337;28;20492;-84
2023/01/10 08:58:23;;;;;;;7.32;2.13;;;;;;;4.04;100.00;99622.41;5090860;28;20183;-84
2023/01/10 09:00:51;;;;;;;23.25;2.70;;;;;;;4.10;100.00;99627.25;5090040;28;20058;-85
2023/01/10 09:03:18;;;;;;;10.57;2.55;;;;;;;4.01;100.00;99628.88;5093232;28;20040;-85
2023/01/10 09:05:45;;;;;;;12.95;2.88;;;;;;;4.13;100.00;99639.59;5090295;28;20051;-85
2023/01/10 09:08:12;;;;;;;16.15;3.05;;;;;;;4.13;100.00;99648.50;5093854;28;20151;-84
2023/01/10 09:10:38;;;;;;;8.27;2.70;;;;;;;4.04;100.00;99631.31;5093694;28;20047;-85
2023/01/10 09:13:05;;;;;;;7.45;2.30;;;;;;;4.09;100.00;99639.00;5093804;28;20062;-85
2023/01/10 09:15:33;;;;;;;18.17;2.40;;;;;;;4.19;100.00;99650.66;5079905;28;20055;-85
2023/01/10 09:18:04;;;;;;;10.05;2.35;;;;;;;4.14;100.00;99634.09;5095207;28;20050;-85
2023/01/10 09:20:33;;;;;;;8.40;2.30;;;;;;;4.17;100.00;99638.31;5092483;28;20048;-85
2023/01/10 09:23:05;;;;;;;21.73;2.77;;;;;;;4.22;100.00;99663.03;5090005;28;20044;-84
2023/01/10 09:25:32;;;;;;;10.77;2.53;;;;;;;4.30;100.00;99665.06;5094550;28;20487;-84
2023/01/10 09:27:59;;;;;;;11.07;2.35;;;;;;;4.15;100.00;99643.00;5094936;28;20044;-85
2023/01/10 09:30:27;;;;;;;22.85;3.50;;;;;;;4.30;100.00;99670.44;5092783;28;20049;-85
2023/01/10 09:32:55;;;;;;;12.80;3.47;;;;;;;4.20;100.00;99652.38;5094549;28;20134;-85
2023/01/10 09:35:24;;;;;;;20.55;2.75;;;;;;;4.37;100.00;99674.31;5094726;28;20044;-85
2023/01/10 09:37:54;;;;;;;9.27;2.35;;;;;;;4.37;100.00;99677.84;5088504;28;20477;-85
2023/01/10 09:40:30;;;;;;;8.95;2.03;;;;;;;4.29;100.00;99674.09;5082793;28;20047;-84
2023/01/10 09:43:08;;;;;;;12.25;2.80;;;;;;;4.40;100.00;99692.88;5092324;28;20063;-85
2023/01/10 09:45:42;;;;;;;5.32;2.40;;;;;;;4.41;100.00;99695.44;5094398;28;20043;-85
2023/01/10 09:48:19;;;;;;;5.47;1.58;;;;;;;4.37;100.00;99694.00;5094458;28;20047;-84
2023/01/10 09:50:59;;;;;;;9.02;2.15;;;;;;;4.32;100.00;99701.63;5092204;28;20052;-85
2023/01/10 09:53:31;;;;;;;10.68;2.25;;;;;;;4.21;100.00;99677.44;5085558;28;20082;-85
2023/01/10 09:56:00;;;;;;;15.75;2.58;;;;;;;4.41;100.00;99716.97;5090064;28;20051;-84
2023/01/10 09:58:30;;;;;;;14.85;2.78;;;;;;;4.39;100.00;99704.63;5094619;28;20076;-85
2023/01/10 10:00:58;;;;;;;16.73;3.10;;;;;;;4.31;100.00;99694.53;5094565;28;20138;-84
2023/01/10 10:03:32;;;;;;;9.63;2.33;;;;;;;4.34;100.00;99702.34;5093157;28;20048;-84
2023/01/10 10:06:00;;;;;;;12.15;3.35;;;;;;;4.37;100.00;99688.59;5092727;28;20434;-85
2023/01/10 10:08:27;;;;;;;8.85;2.53;;;;;;;4.48;100.00;99713.75;5092713;28;20048;-85
2023/01/10 10:11:10;;;;;;;14.00;3.45;;;;;;;4.49;100.00;99713.63;5092799;28;20557;-84
2023/01/10 10:13:49;;;;;;;15.73;4.50;;;;;;;4.51;100.00;99703.56;5092885;28;20082;-85
2023/01/10 10:16:27;;;;;;;7.37;2.50;;;;;;;4.58;100.00;99704.75;5092542;28;20131;-84
2023/01/10 10:19:01;;;;;;;16.30;2.42;;;;;;;4.65;100.00;99701.50;5094067;28;20575;-85
2023/01/10 10:21:40;;;;;;;13.38;2.67;;;;;;;4.71;100.00;99700.97;5093558;28;20472;-85
2023/01/10 10:24:25;;;;;;;9.38;2.78;;;;;;;4.78;100.00;99699.47;5093349;28;20298;-85
2023/01/10 10:26:58;;;;;;;14.00;3.63;;;;;;;4.75;100.00;99683.56;5091959;28;20048;-85
2023/01/10 10:29:46;;;;;;;11.30;2.92;;;;;;;4.84;100.00;99701.63;5086944;28;20441;-84
2023/01/10 10:32:34;;;;;;;13.10;2.78;;;;;;;4.88;100.00;99691.44;5093357;28;20052;-85
2023/01/10 10:35:03;;;;;;;11.07;2.17;;;;;;;4.92;100.00;99680.25;5093920;28;20050;-85
2023/01/10 10:37:36;;;;;;;5.88;2.28;;;;;;;4.92;100.00;99704.50;5093900;28;20098;-85
2023/01/10 10:40:06;;;;;;;11.93;2.88;;;;;;;4.77;100.00;99678.88;5090099;28;20047;-85
2023/01/10 10:42:38;;;;;;;11.02;2.28;;;;;;;4.96;100.00;99707.75;5091914;28;20070;-85
2023/01/10 10:45:15;;;;;;;7.32;2.10;;;;;;;4.96;100.00;99705.06;5093620;28;20054;-85
2023/01/10 10:47:48;;;;;;;8.95;2.88;;;;;;;4.89;100.00;99698.50;5091531;28;20056;-85
2023/01/10 10:50:20;;;;;;;12.30;2.33;;;;;;;5.05;100.00;99700.72;5087655;28;20048;-84
2023/01/10 10:52:48;;;;;;;16.88;2.42;;;;;;;5.03;100.00;99681.09;5092999;28;20059;-85
2023/01/10 10:55:17;;;;;;;8.98;1.75;;;;;;;4.89;100.00;99661.66;5093152;28;20098;-85
2023/01/10 10:57:47;;;;;;;12.82;2.95;;;;;;;5.07;100.00;99687.94;5092331;28;20048;-85
2023/01/10 11:00:16;;;;;;;17.15;3.90;;;;;;;5.09;100.00;99685.97;5086021;28;20611;-85
2023/01/10 11:02:48;;;;;;;10.00;2.88;;;;;;;5.04;100.00;99699.00;5092356;28;20052;-85
2023/01/10 11:05:20;;;;;;;13.27;2.42;;;;;;;5.01;100.00;99696.56;5092794;28;20076;-85
2023/01/10 11:07:49;;;;;;;9.63;2.20;;;;;;;4.85;100.00;99671.00;5088206;28;20052;-85
2023/01/10 11:10:37;;;;;;;9.05;2.22;;;;;;;4.92;100.00;99679.38;5091205;28;20054;-85
2023/01/10 11:13:13;;;;;;;8.48;2.13;;;;;;;5.01;100.00;99704.66;5092971;28;20040;-85
2023/01/10 11:15:42;;;;;;;14.07;2.58;;;;;;;5.11;100.00;99706.41;5092974;28;20131;-86
2023/01/10 11:18:13;;;;;;;12.10;2.05;;;;;;;5.28;100.00;99706.72;5093326;28;20056;-86
2023/01/10 11:20:56;;;;;;;3.45;1.73;;;;;;;5.14;100.00;99699.88;5091140;28;20055;-85
2023/01/10 11:23:35;;;;;;;6.13;1.38;;;;;;;5.07;100.00;99687.94;5075607;28;20036;-85
2023/01/10 11:26:03;;;;;;;5.53;1.55;;;;;;;5.18;100.00;99711.22;5092215;28;20044;-84
2023/01/10 11:28:32;;;;;;;5.43;1.60;;;;;;;5.17;100.00;99705.00;5093068;28;20059;-85
2023/01/10 11:30:59;;;;;;;4.90;1.73;;;;;;;5.23;100.00;99701.75;5091185;28;20059;-85
2023/01/10 11:33:29;;;;;;;6.65;1.92;;;;;;;5.19;100.00;99686.84;5092129;28;20059;-85
2023/01/10 11:35:59;;;;;;;11.20;1.70;;;;;;;5.33;100.00;99696.41;5093207;28;20133;-85
2023/01/10 11:38:28;;;;;;;22.15;2.28;;;;;;;5.25;100.00;99693.53;5092613;28;20243;-85
2023/01/10 11:40:59;;;;;;;5.68;1.40;;;;;;;5.26;100.00;99696.09;5082424;28;20066;-85
2023/01/10 11:43:29;;;;;;;15.43;2.10;;;;;;;5.14;98.67;99681.03;5091783;28;20076;-85
2023/01/10 11:46:01;;;;;;;9.38;1.77;;;;;;;5.20;100.00;99688.56;5092692;28;20047;-85
2023/01/10 11:48:33;;;;;;;5.38;1.17;;;;;;;5.13;100.00;99690.09;5092632;28;20052;-86
2023/01/10 11:51:00;;;;;;;9.05;1.27;;;;;;;4.91;100.00;99675.00;5090301;28;20051;-85
2023/01/10 11:53:40;;;;;;;4.90;1.98;;;;;;;5.03;100.00;99695.47;5091355;28;20051;-86